createdAt,value
2023-05-24T00:02:30.716Z,17.79
2023-05-24T00:05:33.844Z,17.77
2023-05-24T00:08:36.555Z,17.77
2023-05-24T00:11:39.251Z,17.72
2023-05-24T00:14:42.088Z,17.72
2023-05-24T00:17:44.882Z,17.72
2023-05-24T00:20:47.994Z,17.60
2023-05-24T00:23:52.146Z,17.54
2023-05-24T00:26:54.907Z,17.44
2023-05-24T00:29:57.819Z,17.30
2023-05-24T00:33:00.653Z,17.25
2023-05-24T00:36:03.535Z,17.17
2023-05-24T00:39:06.684Z,17.05
2023-05-24T00:42:09.872Z,16.97
2023-05-24T00:45:13.010Z,16.87
2023-05-24T00:48:16.075Z,16.79
2023-05-24T00:51:19.165Z,16.71
2023-05-24T00:54:22.532Z,16.61
2023-05-24T00:57:27.556Z,16.52
2023-05-24T01:00:30.737Z,16.49
2023-05-24T01:03:34.102Z,16.44
2023-05-24T01:06:52.205Z,16.44
2023-05-24T01:09:54.880Z,16.36
2023-05-24T01:13:20.956Z,16.41
2023-05-24T01:16:28.820Z,16.37
2023-05-24T01:19:49.116Z,16.39
2023-05-24T01:23:20.049Z,16.34
2023-05-24T01:26:40.351Z,16.34
2023-05-24T01:29:43.178Z,16.41
2023-05-24T01:32:46.434Z,16.42
2023-05-24T01:35:49.448Z,16.46
2023-05-24T01:38:52.843Z,16.46
2023-05-24T01:42:17.443Z,16.54
2023-05-24T01:45:35.884Z,16.63
2023-05-24T01:49:09.500Z,16.62
2023-05-24T01:52:15.373Z,16.60
2023-05-24T01:55:18.866Z,16.61
2023-05-24T01:58:23.758Z,16.60
2023-05-24T02:01:27.683Z,16.58
2023-05-24T02:04:30.991Z,16.55
2023-05-24T02:07:33.844Z,16.55
2023-05-24T02:10:39.824Z,16.47
2023-05-24T02:13:42.626Z,16.42
2023-05-24T02:16:46.977Z,16.46
2023-05-24T02:19:49.963Z,16.51
2023-05-24T02:22:52.915Z,16.51
2023-05-24T02:25:56.750Z,16.60
2023-05-24T02:28:59.633Z,16.61
2023-05-24T02:32:02.523Z,16.60
2023-05-24T02:35:06.196Z,16.59
2023-05-24T02:38:09.923Z,16.60
2023-05-24T02:41:17.984Z,16.62
2023-05-24T02:44:20.754Z,16.66
2023-05-24T02:47:23.614Z,16.63
2023-05-24T02:50:26.431Z,16.62
2023-05-24T02:53:30.197Z,16.60
2023-05-24T02:56:33.311Z,16.63
2023-05-24T02:59:36.617Z,16.67
2023-05-24T03:02:41.354Z,16.72
2023-05-24T03:05:44.349Z,16.66
2023-05-24T03:08:49.502Z,16.66
2023-05-24T03:11:54.654Z,16.74
2023-05-24T03:14:57.863Z,16.74
2023-05-24T03:18:01.083Z,16.75
2023-05-24T03:21:04.186Z,16.79
2023-05-24T03:24:07.267Z,16.83
2023-05-24T03:27:10.907Z,16.82
2023-05-24T03:30:13.908Z,16.86
2023-05-24T03:33:27.613Z,16.89
2023-05-24T03:36:31.220Z,16.95
2023-05-24T03:39:34.046Z,16.95
2023-05-24T03:42:51.050Z,16.98
2023-05-24T03:45:55.718Z,17.10
2023-05-24T03:48:58.566Z,17.13
2023-05-24T03:52:01.572Z,17.20
2023-05-24T03:55:04.727Z,17.15
2023-05-24T03:58:07.538Z,17.19
2023-05-24T04:01:22.030Z,17.27
2023-05-24T04:04:32.774Z,17.32
2023-05-24T04:07:37.110Z,17.45
2023-05-24T04:10:40.075Z,17.48
2023-05-24T04:13:46.005Z,17.53
2023-05-24T04:16:48.951Z,17.61
2023-05-24T04:19:52.111Z,17.60
2023-05-24T04:22:56.519Z,17.61
2023-05-24T04:25:59.651Z,17.77
2023-05-24T04:29:02.495Z,17.78
2023-05-24T04:32:06.422Z,17.76
2023-05-24T04:35:09.765Z,17.90
2023-05-24T04:38:12.944Z,17.90
2023-05-24T04:41:15.827Z,18.03
2023-05-24T04:44:18.897Z,18.15
2023-05-24T04:47:21.729Z,18.07
2023-05-24T04:50:24.565Z,18.04
2023-05-24T04:53:27.477Z,18.04
2023-05-24T04:56:30.332Z,18.13
2023-05-24T04:59:33.162Z,18.23
2023-05-24T05:02:36.192Z,18.29
2023-05-24T05:05:39.078Z,18.21
2023-05-24T05:08:41.945Z,18.27
2023-05-24T05:11:46.887Z,18.31
2023-05-24T05:14:50.808Z,18.39
2023-05-24T05:17:53.605Z,18.52
2023-05-24T05:20:56.399Z,18.50
2023-05-24T05:24:00.259Z,18.50
2023-05-24T05:27:03.091Z,18.50
2023-05-24T05:30:06.609Z,18.59
2023-05-24T05:33:12.144Z,18.71
2023-05-24T05:36:15.605Z,18.78
2023-05-24T05:39:18.399Z,18.87
2023-05-24T05:42:21.236Z,19.18
2023-05-24T05:45:24.755Z,19.17
2023-05-24T05:48:27.669Z,19.35
2023-05-24T05:51:30.722Z,19.42
2023-05-24T05:54:36.531Z,19.44
2023-05-24T05:57:39.362Z,19.55
2023-05-24T06:00:42.626Z,19.45
2023-05-24T06:03:45.962Z,19.58
2023-05-24T06:06:50.073Z,19.80
2023-05-24T06:10:07.526Z,19.62
2023-05-24T06:13:40.417Z,19.70
2023-05-24T06:16:49.389Z,20.03
2023-05-24T06:19:55.450Z,20.13
2023-05-24T06:23:01.641Z,20.15
2023-05-24T06:26:05.120Z,20.36
2023-05-24T06:29:08.588Z,20.08
2023-05-24T06:32:11.963Z,20.47
2023-05-24T06:35:14.993Z,20.53
2023-05-24T06:38:19.644Z,20.77
2023-05-24T06:41:23.069Z,21.17
2023-05-24T06:44:33.823Z,21.26
2023-05-24T06:47:37.397Z,21.56
2023-05-24T06:50:42.572Z,21.55
2023-05-24T06:53:45.842Z,21.30
2023-05-24T06:56:48.754Z,20.68
2023-05-24T06:59:52.621Z,21.31
2023-05-24T07:03:01.609Z,21.66
2023-05-24T07:06:05.363Z,21.95
2023-05-24T07:09:10.610Z,22.03
2023-05-24T07:12:13.740Z,21.83
2023-05-24T07:15:19.157Z,22.04
2023-05-24T07:18:22.073Z,21.27
2023-05-24T07:21:24.931Z,21.51
2023-05-24T07:24:28.017Z,21.88
2023-05-24T07:27:30.892Z,22.51
2023-05-24T07:30:34.329Z,23.03
2023-05-24T07:33:40.686Z,23.08
2023-05-24T07:36:43.549Z,23.17
2023-05-24T07:39:46.500Z,22.93
2023-05-24T07:42:49.389Z,22.59
2023-05-24T07:45:52.241Z,22.29
2023-05-24T07:48:57.648Z,22.45
2023-05-24T07:52:00.673Z,22.30
2023-05-24T07:55:04.188Z,22.43
2023-05-24T07:58:07.114Z,21.80
2023-05-24T08:01:11.315Z,22.41
2023-05-24T08:04:14.450Z,22.94
2023-05-24T08:07:18.211Z,22.80
2023-05-24T08:10:22.222Z,23.05
2023-05-24T08:13:26.884Z,23.08
2023-05-24T08:16:30.045Z,22.92
2023-05-24T08:19:36.118Z,23.13
2023-05-24T08:22:39.313Z,23.52
2023-05-24T08:25:42.832Z,22.63
2023-05-24T08:28:46.149Z,23.82
2023-05-24T08:31:49.219Z,24.47
2023-05-24T08:34:57.949Z,24.37
2023-05-24T08:38:07.102Z,24.61
2023-05-24T08:41:12.007Z,24.31
2023-05-24T08:44:17.734Z,23.79
2023-05-24T08:47:22.433Z,23.99
2023-05-24T08:50:26.392Z,23.71
2023-05-24T08:54:14.184Z,23.37
2023-05-24T08:57:21.684Z,24.02
2023-05-24T09:00:25.204Z,24.61
2023-05-24T09:03:28.501Z,24.52
2023-05-24T09:06:32.843Z,24.47
2023-05-24T09:09:37.991Z,24.53
2023-05-24T09:12:49.140Z,25.01
2023-05-24T09:15:52.498Z,24.97
2023-05-24T09:18:55.570Z,25.14
2023-05-24T09:21:59.912Z,25.78
2023-05-24T09:25:06.737Z,25.88
2023-05-24T09:28:09.728Z,26.31
2023-05-24T09:31:14.008Z,26.65
2023-05-24T09:34:17.051Z,26.72
2023-05-24T09:37:27.604Z,27.05
2023-05-24T09:40:31.888Z,27.21
2023-05-24T09:43:46.854Z,27.26
2023-05-24T09:46:49.680Z,27.29
2023-05-24T09:49:58.357Z,27.75
2023-05-24T09:53:35.426Z,27.70
2023-05-24T09:56:43.347Z,27.45
2023-05-24T09:59:47.196Z,28.47
2023-05-24T10:03:04.081Z,28.67
2023-05-24T10:06:19.078Z,30.76
2023-05-24T10:09:26.558Z,29.98
2023-05-24T10:12:31.312Z,30.90
2023-05-24T10:15:34.142Z,31.04
2023-05-24T10:18:37.036Z,31.37
2023-05-24T10:21:43.336Z,30.83
2023-05-24T10:24:48.605Z,29.16
2023-05-24T10:27:54.746Z,29.43
2023-05-24T10:31:03.508Z,31.25
2023-05-24T10:34:08.847Z,30.91
2023-05-24T10:37:12.333Z,29.57
2023-05-24T10:40:25.522Z,30.81
2023-05-24T10:43:28.727Z,31.97
2023-05-24T10:46:33.236Z,33.26
2023-05-24T10:49:37.438Z,34.58
2023-05-24T10:52:40.319Z,32.84
2023-05-24T10:55:55.224Z,34.39
2023-05-24T10:58:59.896Z,34.78
2023-05-24T11:02:35.822Z,35.12
2023-05-24T11:06:17.164Z,35.41
2023-05-24T11:09:23.014Z,35.45
2023-05-24T11:12:34.767Z,35.06
2023-05-24T11:15:39.940Z,36.15
2023-05-24T11:18:55.904Z,36.51
2023-05-24T11:21:59.961Z,35.44
2023-05-24T11:25:06.305Z,35.82
2023-05-24T11:28:12.635Z,36.00
2023-05-24T11:31:16.025Z,33.04
2023-05-24T11:34:19.933Z,34.72
2023-05-24T11:37:34.908Z,34.44
2023-05-24T11:40:47.758Z,35.55
2023-05-24T11:43:50.709Z,35.88
2023-05-24T11:47:01.111Z,35.67
2023-05-24T11:50:04.185Z,34.80
2023-05-24T11:53:11.123Z,35.35
2023-05-24T11:56:13.969Z,35.41
2023-05-24T11:59:28.332Z,36.53
2023-05-24T12:02:31.350Z,36.45
2023-05-24T12:05:34.787Z,36.99
2023-05-24T12:08:37.618Z,38.09
2023-05-24T12:11:42.357Z,35.54
2023-05-24T12:14:45.530Z,36.32
2023-05-24T12:17:52.348Z,36.10
2023-05-24T12:20:55.400Z,34.71
2023-05-24T12:23:58.462Z,33.67
2023-05-24T12:27:08.274Z,34.79
2023-05-24T12:30:18.956Z,34.86
2023-05-24T12:33:21.749Z,35.93
2023-05-24T12:36:24.574Z,34.80
2023-05-24T12:39:31.942Z,34.91
2023-05-24T12:42:36.781Z,36.37
2023-05-24T12:45:39.689Z,33.48
2023-05-24T12:48:42.497Z,34.96
2023-05-24T12:51:47.156Z,35.90
2023-05-24T12:54:51.828Z,35.49
2023-05-24T12:57:57.576Z,35.23
2023-05-24T13:01:00.467Z,35.31
2023-05-24T13:04:04.167Z,35.70
2023-05-24T13:07:06.951Z,35.63
2023-05-24T13:10:09.834Z,36.02
2023-05-24T13:13:12.689Z,35.74
2023-05-24T13:16:16.638Z,36.12
2023-05-24T13:19:19.490Z,34.36
2023-05-24T13:22:22.415Z,32.57
2023-05-24T13:25:26.790Z,31.67
2023-05-24T13:28:31.394Z,30.14
2023-05-24T13:31:34.407Z,30.19
2023-05-24T13:34:37.359Z,29.28
2023-05-24T13:37:41.197Z,29.64
2023-05-24T13:40:46.036Z,29.70
2023-05-24T13:43:49.155Z,29.83
2023-05-24T13:46:52.389Z,29.70
2023-05-24T13:49:56.565Z,28.87
2023-05-24T13:53:02.345Z,28.89
2023-05-24T13:56:07.461Z,29.24
2023-05-24T13:59:12.231Z,29.16
2023-05-24T14:02:15.227Z,29.18
2023-05-24T14:05:27.307Z,29.21
2023-05-24T14:08:30.984Z,28.95
2023-05-24T14:11:34.256Z,29.01
2023-05-24T14:14:59.378Z,29.12
2023-05-24T14:18:26.131Z,29.02
2023-05-24T14:21:32.593Z,28.55
2023-05-24T14:24:35.553Z,28.77
2023-05-24T14:27:38.712Z,28.88
2023-05-24T14:30:42.252Z,28.93
2023-05-24T14:33:45.019Z,28.88
2023-05-24T14:36:48.672Z,28.66
2023-05-24T14:39:51.543Z,28.19
2023-05-24T14:42:55.517Z,28.17
2023-05-24T14:45:58.370Z,28.39
2023-05-24T14:49:02.716Z,28.03
2023-05-24T14:52:05.947Z,27.42
2023-05-24T14:55:09.174Z,27.35
2023-05-24T14:58:12.602Z,27.79
2023-05-24T15:01:15.538Z,27.92
2023-05-24T15:04:19.000Z,28.09
2023-05-24T15:07:22.981Z,28.03
2023-05-24T15:10:25.779Z,27.94
2023-05-24T15:13:28.628Z,27.90
2023-05-24T15:16:31.709Z,27.67
2023-05-24T15:19:34.580Z,26.96
2023-05-24T15:22:37.382Z,27.18
2023-05-24T15:25:41.123Z,27.26
2023-05-24T15:28:43.878Z,27.19
2023-05-24T15:31:47.034Z,26.54
2023-05-24T15:34:50.869Z,26.72
2023-05-24T15:37:53.651Z,26.77
2023-05-24T15:40:56.636Z,26.79
2023-05-24T15:44:01.000Z,26.80
2023-05-24T15:47:04.217Z,26.81
2023-05-24T15:50:10.413Z,26.41
2023-05-24T15:53:13.329Z,26.68
2023-05-24T15:56:16.537Z,26.73
2023-05-24T15:59:21.552Z,26.56
2023-05-24T16:02:24.850Z,26.39
2023-05-24T16:05:28.475Z,26.14
2023-05-24T16:08:31.436Z,25.98
2023-05-24T16:11:34.481Z,25.77
2023-05-24T16:14:37.280Z,25.91
2023-05-24T16:17:40.074Z,25.87
2023-05-24T16:20:43.243Z,25.55
2023-05-24T16:23:49.421Z,25.65
2023-05-24T16:26:57.848Z,25.66
2023-05-24T16:30:00.590Z,25.66
2023-05-24T16:33:03.591Z,25.59
2023-05-24T16:36:06.735Z,25.33
2023-05-24T16:39:12.039Z,25.28
2023-05-24T16:42:14.937Z,25.21
2023-05-24T16:45:17.756Z,25.16
2023-05-24T16:48:21.868Z,24.94
2023-05-24T16:51:24.895Z,24.99
2023-05-24T16:54:27.650Z,24.86
2023-05-24T16:57:30.447Z,24.87
2023-05-24T17:00:33.234Z,24.75
2023-05-24T17:03:36.334Z,24.74
2023-05-24T17:06:39.209Z,24.64
2023-05-24T17:09:42.000Z,24.66
2023-05-24T17:12:44.789Z,24.46
2023-05-24T17:15:47.646Z,24.20
2023-05-24T17:18:51.122Z,24.19
2023-05-24T17:21:53.999Z,24.10
2023-05-24T17:24:56.759Z,23.98
2023-05-24T17:27:59.519Z,23.97
2023-05-24T17:31:02.905Z,23.80
2023-05-24T17:34:05.750Z,23.64
2023-05-24T17:37:08.557Z,23.57
2023-05-24T17:40:11.645Z,23.37
2023-05-24T17:43:14.450Z,23.32
2023-05-24T17:46:17.704Z,23.17
2023-05-24T17:49:20.501Z,23.13
2023-05-24T17:52:23.236Z,22.96
2023-05-24T17:55:27.094Z,22.85
2023-05-24T17:58:31.064Z,22.72
2023-05-24T18:01:33.999Z,22.58
2023-05-24T18:04:36.791Z,22.40
2023-05-24T18:07:39.621Z,22.25
2023-05-24T18:10:42.580Z,22.07
2023-05-24T18:13:45.348Z,21.96
2023-05-24T18:16:48.142Z,21.77
2023-05-24T18:19:51.416Z,21.62
2023-05-24T18:22:54.222Z,21.46
2023-05-24T18:26:00.440Z,21.33
2023-05-24T18:29:05.839Z,21.20
2023-05-24T18:32:08.656Z,21.08
2023-05-24T18:35:12.604Z,20.97
2023-05-24T18:38:15.469Z,20.85
2023-05-24T18:41:18.567Z,20.81
2023-05-24T18:44:21.618Z,20.75
2023-05-24T18:47:24.415Z,20.70
2023-05-24T18:50:27.236Z,20.56
2023-05-24T18:53:30.018Z,20.36
2023-05-24T18:56:32.883Z,20.29
2023-05-24T18:59:36.688Z,20.23
2023-05-24T19:02:39.768Z,20.10
2023-05-24T19:05:44.158Z,20.00
2023-05-24T19:08:47.481Z,19.90
2023-05-24T19:11:50.279Z,19.80
2023-05-24T19:14:53.081Z,19.75
2023-05-24T19:17:58.083Z,19.60
2023-05-24T19:21:01.018Z,19.47
2023-05-24T19:24:03.941Z,19.38
2023-05-24T19:27:07.252Z,19.28
2023-05-24T19:30:10.446Z,19.14
2023-05-24T19:33:13.324Z,19.09
2023-05-24T19:36:17.029Z,19.07
2023-05-24T19:39:19.888Z,18.99
2023-05-24T19:42:22.689Z,19.05
2023-05-24T19:45:25.777Z,19.01
2023-05-24T19:48:28.613Z,18.92
2023-05-24T19:51:31.501Z,18.84
2023-05-24T19:54:35.810Z,18.80
2023-05-24T19:57:38.607Z,18.69
2023-05-24T20:00:41.629Z,18.57
2023-05-24T20:03:48.593Z,18.46
2023-05-24T20:06:53.475Z,18.37
2023-05-24T20:09:56.261Z,18.33
2023-05-24T20:12:59.140Z,18.33
2023-05-24T20:16:01.998Z,18.30
2023-05-24T20:19:04.808Z,18.26
2023-05-24T20:22:07.578Z,18.21
2023-05-24T20:25:10.989Z,18.17
2023-05-24T20:28:28.750Z,18.06
2023-05-24T20:31:32.720Z,17.94
2023-05-24T20:34:35.971Z,17.90
2023-05-24T20:37:38.934Z,17.91
2023-05-24T20:40:42.088Z,17.88
2023-05-24T20:43:44.845Z,17.79
2023-05-24T20:46:47.739Z,17.81
2023-05-24T20:49:50.976Z,17.78
2023-05-24T20:52:53.790Z,17.76
2023-05-24T20:55:57.377Z,17.70
2023-05-24T20:59:00.365Z,17.65
2023-05-24T21:02:03.203Z,17.62
2023-05-24T21:05:06.818Z,17.53
2023-05-24T21:08:09.759Z,17.45
2023-05-24T21:11:12.838Z,17.43
2023-05-24T21:14:15.845Z,17.35
2023-05-24T21:17:18.915Z,17.26
2023-05-24T21:20:21.968Z,17.21
2023-05-24T21:23:25.374Z,17.19
2023-05-24T21:26:28.183Z,17.13
2023-05-24T21:29:31.088Z,17.10
2023-05-24T21:32:33.965Z,17.09
2023-05-24T21:35:37.439Z,17.05
2023-05-24T21:38:40.174Z,17.00
2023-05-24T21:41:43.065Z,16.89
2023-05-24T21:44:45.989Z,16.93
2023-05-24T21:47:48.866Z,16.86
2023-05-24T21:50:51.719Z,16.83
2023-05-24T21:53:54.534Z,16.83
2023-05-24T21:56:57.412Z,16.86
2023-05-24T22:00:00.172Z,16.85
2023-05-24T22:03:02.977Z,16.80
2023-05-24T22:06:05.950Z,16.78
2023-05-24T22:09:13.752Z,16.74
2023-05-24T22:12:16.603Z,16.70
2023-05-24T22:15:19.414Z,16.60
2023-05-24T22:18:22.195Z,16.64
2023-05-24T22:21:26.380Z,16.61
2023-05-24T22:24:29.102Z,16.71
2023-05-24T22:27:31.928Z,16.66
2023-05-24T22:30:36.050Z,16.79
2023-05-24T22:33:38.810Z,16.72
2023-05-24T22:36:41.668Z,16.76
2023-05-24T22:39:45.613Z,16.64
2023-05-24T22:42:48.391Z,16.53
2023-05-24T22:45:51.500Z,16.55
2023-05-24T22:48:56.822Z,16.53
2023-05-24T22:52:00.571Z,16.49
2023-05-24T22:55:03.511Z,16.50
2023-05-24T22:58:06.348Z,16.43
2023-05-24T23:01:09.187Z,16.39
2023-05-24T23:04:21.257Z,16.40
2023-05-24T23:07:25.252Z,16.32
2023-05-24T23:10:28.043Z,16.24
2023-05-24T23:13:36.188Z,16.19
2023-05-24T23:16:46.147Z,16.15
2023-05-24T23:19:50.564Z,16.07
2023-05-24T23:22:53.385Z,15.99
2023-05-24T23:25:56.440Z,15.94
2023-05-24T23:28:59.216Z,15.89
2023-05-24T23:32:02.163Z,15.82
2023-05-24T23:35:05.274Z,15.85
2023-05-24T23:38:08.054Z,15.86
2023-05-24T23:41:10.798Z,15.90
2023-05-24T23:44:13.665Z,15.84
2023-05-24T23:47:16.375Z,15.85
2023-05-24T23:50:22.580Z,15.82
2023-05-24T23:53:25.504Z,15.72
2023-05-24T23:56:28.247Z,15.69
2023-05-24T23:59:31.024Z,15.61
